sensor_id;sensor_type;location;lat;lon;timestamp;pressure;altitude;pressure_sealevel;temperature;humidity
68634;BME280;55625;47.072;22.192;2023-04-29T00:00:56;99790.94;;;6.41;83.00
68634;BME280;55625;47.072;22.192;2023-04-29T00:03:22;99794.53;;;6.45;83.20
68634;BME280;55625;47.072;22.192;2023-04-29T00:05:47;99786.09;;;6.45;83.78
68634;BME280;55625;47.072;22.192;2023-04-29T00:08:13;99795.28;;;6.49;83.17
68634;BME280;55625;47.072;22.192;2023-04-29T00:10:39;99785.19;;;6.52;83.53
68634;BME280;55625;47.072;22.192;2023-04-29T00:13:05;99786.41;;;6.51;83.52
68634;BME280;55625;47.072;22.192;2023-04-29T00:15:32;99783.16;;;6.52;82.21
68634;BME280;55625;47.072;22.192;2023-04-29T00:17:57;99779.53;;;6.52;82.83
68634;BME280;55625;47.072;22.192;2023-04-29T00:20:23;99785.97;;;6.52;82.23
68634;BME280;55625;47.072;22.192;2023-04-29T00:22:49;99775.06;;;6.54;81.69
68634;BME280;55625;47.072;22.192;2023-04-29T00:25:15;99780.72;;;6.54;80.80
68634;BME280;55625;47.072;22.192;2023-04-29T00:27:41;99774.28;;;6.54;81.40
68634;BME280;55625;47.072;22.192;2023-04-29T00:30:08;99776.97;;;6.61;81.71
68634;BME280;55625;47.072;22.192;2023-04-29T00:32:33;99768.47;;;6.65;81.21
68634;BME280;55625;47.072;22.192;2023-04-29T00:34:59;99769.94;;;6.73;80.60
68634;BME280;55625;47.072;22.192;2023-04-29T00:37:26;99771.06;;;6.79;80.30
68634;BME280;55625;47.072;22.192;2023-04-29T00:39:52;99775.50;;;6.80;81.28
68634;BME280;55625;47.072;22.192;2023-04-29T00:42:17;99766.66;;;6.78;82.33
68634;BME280;55625;47.072;22.192;2023-04-29T00:44:44;99762.63;;;6.79;82.76
68634;BME280;55625;47.072;22.192;2023-04-29T00:47:10;99760.22;;;6.77;82.41
68634;BME280;55625;47.072;22.192;2023-04-29T00:49:39;99756.97;;;6.79;83.06
68634;BME280;55625;47.072;22.192;2023-04-29T00:52:05;99756.97;;;6.79;83.16
68634;BME280;55625;47.072;22.192;2023-04-29T00:54:33;99755.81;;;6.76;84.02
68634;BME280;55625;47.072;22.192;2023-04-29T00:57:01;99753.41;;;6.75;83.55
68634;BME280;55625;47.072;22.192;2023-04-29T00:59:28;99753.78;;;6.77;84.09
68634;BME280;55625;47.072;22.192;2023-04-29T01:02:01;99754.53;;;6.81;83.23
68634;BME280;55625;47.072;22.192;2023-04-29T01:04:31;99760.97;;;6.81;83.55
68634;BME280;55625;47.072;22.192;2023-04-29T01:12:47;99757.72;;;6.83;83.19
68634;BME280;55625;47.072;22.192;2023-04-29T01:18:26;99759.75;;;6.82;83.11
68634;BME280;55625;47.072;22.192;2023-04-29T01:20:56;99757.78;;;6.79;83.75
68634;BME280;55625;47.072;22.192;2023-04-29T01:23:27;99759.44;;;6.77;83.77
68634;BME280;55625;47.072;22.192;2023-04-29T01:25:53;99744.56;;;6.73;83.81
68634;BME280;55625;47.072;22.192;2023-04-29T01:28:54;99746.19;;;6.74;84.60
68634;BME280;55625;47.072;22.192;2023-04-29T01:31:30;99745.31;;;6.77;83.50
68634;BME280;55625;47.072;22.192;2023-04-29T01:34:39;99743.63;;;6.83;83.31
68634;BME280;55625;47.072;22.192;2023-04-29T01:37:17;99746.81;;;6.85;82.90
68634;BME280;55625;47.072;22.192;2023-04-29T01:40:08;99743.13;;;6.88;81.91
68634;BME280;55625;47.072;22.192;2023-04-29T01:42:46;99737.84;;;6.90;82.69
68634;BME280;55625;47.072;22.192;2023-04-29T01:45:17;99740.59;;;6.94;81.63
68634;BME280;55625;47.072;22.192;2023-04-29T01:47:46;99741.34;;;6.98;81.48
68634;BME280;55625;47.072;22.192;2023-04-29T01:50:13;99740.19;;;6.95;82.27
68634;BME280;55625;47.072;22.192;2023-04-29T01:52:39;99748.16;;;7.00;81.89
68634;BME280;55625;47.072;22.192;2023-04-29T01:55:05;99738.81;;;7.03;81.46
68634;BME280;55625;47.072;22.192;2023-04-29T01:57:32;99737.56;;;7.08;80.60
68634;BME280;55625;47.072;22.192;2023-04-29T01:59:58;99740.69;;;7.13;80.06
68634;BME280;55625;47.072;22.192;2023-04-29T02:02:26;99740.25;;;7.15;79.80
68634;BME280;55625;47.072;22.192;2023-04-29T02:04:52;99737.00;;;7.16;79.31
68634;BME280;55625;47.072;22.192;2023-04-29T02:07:18;99731.28;;;7.20;78.13
68634;BME280;55625;47.072;22.192;2023-04-29T02:09:44;99736.06;;;7.23;78.86
68634;BME280;55625;47.072;22.192;2023-04-29T02:12:09;99738.88;;;7.23;79.69
68634;BME280;55625;47.072;22.192;2023-04-29T02:14:35;99733.69;;;7.22;78.52
68634;BME280;55625;47.072;22.192;2023-04-29T02:17:01;99736.13;;;7.20;79.11
68634;BME280;55625;47.072;22.192;2023-04-29T02:19:27;99743.38;;;7.21;79.19
68634;BME280;55625;47.072;22.192;2023-04-29T02:21:53;99739.31;;;7.22;78.42
68634;BME280;55625;47.072;22.192;2023-04-29T02:24:19;99741.28;;;7.25;79.95
68634;BME280;55625;47.072;22.192;2023-04-29T02:26:44;99738.47;;;7.25;79.58
68634;BME280;55625;47.072;22.192;2023-04-29T02:29:10;99740.84;;;7.26;78.92
68634;BME280;55625;47.072;22.192;2023-04-29T02:31:36;99739.25;;;7.25;79.14
68634;BME280;55625;47.072;22.192;2023-04-29T02:34:02;99731.94;;;7.28;79.12
68634;BME280;55625;47.072;22.192;2023-04-29T02:36:29;99727.91;;;7.29;79.43
68634;BME280;55625;47.072;22.192;2023-04-29T02:38:56;99730.34;;;7.27;80.24
68634;BME280;55625;47.072;22.192;2023-04-29T02:41:22;99734.75;;;7.28;79.79
68634;BME280;55625;47.072;22.192;2023-04-29T02:43:48;99729.13;;;7.28;79.49
68634;BME280;55625;47.072;22.192;2023-04-29T02:46:14;99731.16;;;7.27;80.79
68634;BME280;55625;47.072;22.192;2023-04-29T02:48:41;99729.47;;;7.30;80.15
68634;BME280;55625;47.072;22.192;2023-04-29T02:51:07;99727.53;;;7.27;80.52
68634;BME280;55625;47.072;22.192;2023-04-29T02:53:33;99730.34;;;7.27;81.14
68634;BME280;55625;47.072;22.192;2023-04-29T02:55:59;99726.31;;;7.28;80.72
68634;BME280;55625;47.072;22.192;2023-04-29T02:58:24;99725.88;;;7.29;78.71
68634;BME280;55625;47.072;22.192;2023-04-29T03:00:50;99731.06;;;7.31;79.16
68634;BME280;55625;47.072;22.192;2023-04-29T03:03:16;99727.03;;;7.32;79.88
68634;BME280;55625;47.072;22.192;2023-04-29T03:05:42;99731.00;;;7.34;78.61
68634;BME280;55625;47.072;22.192;2023-04-29T03:08:08;99731.78;;;7.38;78.05
68634;BME280;55625;47.072;22.192;2023-04-29T03:10:35;99724.88;;;7.39;79.65
68634;BME280;55625;47.072;22.192;2023-04-29T03:13:01;99731.34;;;7.40;79.93
68634;BME280;55625;47.072;22.192;2023-04-29T03:15:27;99725.69;;;7.40;79.43
68634;BME280;55625;47.072;22.192;2023-04-29T03:17:54;99731.34;;;7.40;80.61
68634;BME280;55625;47.072;22.192;2023-04-29T03:20:20;99729.66;;;7.42;81.48
68634;BME280;55625;47.072;22.192;2023-04-29T03:22:46;99728.88;;;7.42;79.52
68634;BME280;55625;47.072;22.192;2023-04-29T03:25:11;99727.03;;;7.32;80.25
68634;BME280;55625;47.072;22.192;2023-04-29T03:27:38;99730.06;;;7.21;80.18
68634;BME280;55625;47.072;22.192;2023-04-29T03:30:05;99732.94;;;7.18;79.44
68634;BME280;55625;47.072;22.192;2023-04-29T03:32:31;99737.00;;;7.16;79.05
68634;BME280;55625;47.072;22.192;2023-04-29T03:34:57;99737.84;;;7.13;79.61
68634;BME280;55625;47.072;22.192;2023-04-29T03:37:23;99740.31;;;7.11;79.42
68634;BME280;55625;47.072;22.192;2023-04-29T03:39:49;99737.13;;;7.09;80.30
68634;BME280;55625;47.072;22.192;2023-04-29T03:42:15;99741.97;;;7.09;80.47
68634;BME280;55625;47.072;22.192;2023-04-29T03:44:40;99738.41;;;7.05;81.07
68634;BME280;55625;47.072;22.192;2023-04-29T03:47:06;99735.25;;;6.99;80.42
68634;BME280;55625;47.072;22.192;2023-04-29T03:49:33;99733.19;;;7.03;80.47
68634;BME280;55625;47.072;22.192;2023-04-29T03:51:59;99734.38;;;7.06;79.88
68634;BME280;55625;47.072;22.192;2023-04-29T03:54:25;99738.34;;;7.08;80.98
68634;BME280;55625;47.072;22.192;2023-04-29T03:56:50;99736.75;;;7.07;81.39
68634;BME280;55625;47.072;22.192;2023-04-29T03:59:16;99745.97;;;7.11;81.64
68634;BME280;55625;47.072;22.192;2023-04-29T04:01:42;99735.03;;;7.13;81.79
68634;BME280;55625;47.072;22.192;2023-04-29T04:04:08;99736.56;;;7.18;81.40
68634;BME280;55625;47.072;22.192;2023-04-29T04:06:33;99735.25;;;7.23;84.03
68634;BME280;55625;47.072;22.192;2023-04-29T04:08:59;99732.00;;;7.24;83.72
68634;BME280;55625;47.072;22.192;2023-04-29T04:11:25;99735.84;;;7.34;83.24
68634;BME280;55625;47.072;22.192;2023-04-29T04:13:51;99730.47;;;7.43;82.30
68634;BME280;55625;47.072;22.192;2023-04-29T04:16:17;99725.03;;;7.52;81.17
68634;BME280;55625;47.072;22.192;2023-04-29T04:18:43;99725.69;;;7.60;81.24
68634;BME280;55625;47.072;22.192;2023-04-29T04:21:10;99726.28;;;7.71;79.73
68634;BME280;55625;47.072;22.192;2023-04-29T04:23:36;99729.31;;;7.80;77.84
68634;BME280;55625;47.072;22.192;2023-04-29T04:26:05;99726.88;;;7.82;78.86
68634;BME280;55625;47.072;22.192;2023-04-29T04:28:32;99727.50;;;7.90;77.08
68634;BME280;55625;47.072;22.192;2023-04-29T04:30:57;99723.31;;;7.98;77.05
68634;BME280;55625;47.072;22.192;2023-04-29T04:33:24;99723.69;;;8.00;75.89
68634;BME280;55625;47.072;22.192;2023-04-29T04:35:50;99719.91;;;8.06;75.26
68634;BME280;55625;47.072;22.192;2023-04-29T04:38:16;99725.13;;;8.08;74.62
68634;BME280;55625;47.072;22.192;2023-04-29T04:40:43;99710.25;;;8.04;76.33
68634;BME280;55625;47.072;22.192;2023-04-29T04:43:08;99714.25;;;8.06;75.66
68634;BME280;55625;47.072;22.192;2023-04-29T04:45:35;99714.31;;;8.03;76.57
68634;BME280;55625;47.072;22.192;2023-04-29T04:48:01;99715.56;;;8.02;74.95
68634;BME280;55625;47.072;22.192;2023-04-29T04:50:28;99718.38;;;8.02;76.25
68634;BME280;55625;47.072;22.192;2023-04-29T04:52:55;99721.50;;;8.07;75.12
68634;BME280;55625;47.072;22.192;2023-04-29T04:55:22;99714.97;;;8.10;74.50
68634;BME280;55625;47.072;22.192;2023-04-29T04:57:47;99713.28;;;8.13;75.04
68634;BME280;55625;47.072;22.192;2023-04-29T05:00:14;99715.69;;;8.15;77.06
68634;BME280;55625;47.072;22.192;2023-04-29T05:02:40;99717.28;;;8.16;75.60
68634;BME280;55625;47.072;22.192;2023-04-29T05:05:06;99720.72;;;8.23;76.03
68634;BME280;55625;47.072;22.192;2023-04-29T05:07:33;99722.63;;;8.30;76.34
68634;BME280;55625;47.072;22.192;2023-04-29T05:10:02;99719.31;;;8.35;75.41
68634;BME280;55625;47.072;22.192;2023-04-29T05:12:28;99723.09;;;8.45;75.21
68634;BME280;55625;47.072;22.192;2023-04-29T05:14:56;99711.63;;;8.52;75.32
68634;BME280;55625;47.072;22.192;2023-04-29T05:17:22;99711.84;;;8.61;76.51
68634;BME280;55625;47.072;22.192;2023-04-29T05:19:48;99722.97;;;8.68;76.36
68634;BME280;55625;47.072;22.192;2023-04-29T05:22:14;99714.31;;;8.75;76.27
68634;BME280;55625;47.072;22.192;2023-04-29T05:24:39;99713.69;;;8.84;76.13
68634;BME280;55625;47.072;22.192;2023-04-29T05:27:05;99711.84;;;8.93;77.76
68634;BME280;55625;47.072;22.192;2023-04-29T05:29:31;99721.28;;;9.03;76.63
68634;BME280;55625;47.072;22.192;2023-04-29T05:31:57;99715.34;;;9.14;76.83
68634;BME280;55625;47.072;22.192;2023-04-29T05:34:23;99724.47;;;9.21;76.28
68634;BME280;55625;47.072;22.192;2023-04-29T05:36:49;99725.16;;;9.25;75.22
68634;BME280;55625;47.072;22.192;2023-04-29T05:39:15;99723.38;;;9.31;75.12
68634;BME280;55625;47.072;22.192;2023-04-29T05:41:42;99728.50;;;9.37;73.33
68634;BME280;55625;47.072;22.192;2023-04-29T05:44:08;99726.47;;;9.37;73.98
68634;BME280;55625;47.072;22.192;2023-04-29T05:46:34;99738.50;;;9.41;73.82
68634;BME280;55625;47.072;22.192;2023-04-29T05:49:00;99732.28;;;9.46;74.90
68634;BME280;55625;47.072;22.192;2023-04-29T05:51:26;99736.25;;;9.49;73.66
68634;BME280;55625;47.072;22.192;2023-04-29T05:53:53;99743.44;;;9.53;73.54
68634;BME280;55625;47.072;22.192;2023-04-29T05:56:19;99742.91;;;9.58;73.31
68634;BME280;55625;47.072;22.192;2023-04-29T05:58:46;99740.97;;;9.55;72.36
68634;BME280;55625;47.072;22.192;2023-04-29T06:01:12;99747.88;;;9.54;73.26
68634;BME280;55625;47.072;22.192;2023-04-29T06:03:38;99741.66;;;9.59;74.48
68634;BME280;55625;47.072;22.192;2023-04-29T06:06:04;99745.53;;;9.65;72.89
68634;BME280;55625;47.072;22.192;2023-04-29T06:08:30;99749.63;;;9.77;73.78
68634;BME280;55625;47.072;22.192;2023-04-29T06:10:56;99751.75;;;9.89;70.76
68634;BME280;55625;47.072;22.192;2023-04-29T06:13:22;99743.47;;;9.95;70.21
68634;BME280;55625;47.072;22.192;2023-04-29T06:15:48;99742.91;;;10.00;72.25
68634;BME280;55625;47.072;22.192;2023-04-29T06:18:14;99738.38;;;10.03;72.14
68634;BME280;55625;47.072;22.192;2023-04-29T06:20:40;99734.19;;;10.07;73.60
68634;BME280;55625;47.072;22.192;2023-04-29T06:23:05;99739.69;;;10.14;72.75
68634;BME280;55625;47.072;22.192;2023-04-29T06:25:32;99745.59;;;10.20;72.20
68634;BME280;55625;47.072;22.192;2023-04-29T06:27:57;99743.59;;;10.20;71.10
68634;BME280;55625;47.072;22.192;2023-04-29T06:30:23;99740.53;;;10.27;70.82
68634;BME280;55625;47.072;22.192;2023-04-29T06:32:49;99737.47;;;10.35;69.78
68634;BME280;55625;47.072;22.192;2023-04-29T06:35:15;99739.72;;;10.40;69.07
68634;BME280;55625;47.072;22.192;2023-04-29T06:37:41;99735.22;;;10.42;69.80
68634;BME280;55625;47.072;22.192;2023-04-29T06:40:07;99727.28;;;10.50;70.25
68634;BME280;55625;47.072;22.192;2023-04-29T06:42:33;99725.69;;;10.49;70.57
68634;BME280;55625;47.072;22.192;2023-04-29T06:44:59;99730.00;;;10.53;68.57
68634;BME280;55625;47.072;22.192;2023-04-29T06:47:25;99739.41;;;10.50;68.32
68634;BME280;55625;47.072;22.192;2023-04-29T06:49:51;99735.56;;;10.57;68.27
68634;BME280;55625;47.072;22.192;2023-04-29T06:52:17;99729.88;;;10.57;68.71
68634;BME280;55625;47.072;22.192;2023-04-29T06:54:43;99726.38;;;10.53;68.71
68634;BME280;55625;47.072;22.192;2023-04-29T06:57:09;99727.50;;;10.55;69.49
68634;BME280;55625;47.072;22.192;2023-04-29T06:59:35;99734.44;;;10.54;69.85
68634;BME280;55625;47.072;22.192;2023-04-29T07:02:02;99728.88;;;10.51;69.85
68634;BME280;55625;47.072;22.192;2023-04-29T07:04:28;99731.47;;;10.45;71.78
68634;BME280;55625;47.072;22.192;2023-04-29T07:06:54;99729.88;;;10.44;71.69
68634;BME280;55625;47.072;22.192;2023-04-29T07:09:20;99724.91;;;10.48;71.89
68634;BME280;55625;47.072;22.192;2023-04-29T07:11:48;99724.44;;;10.50;70.98
68634;BME280;55625;47.072;22.192;2023-04-29T07:14:14;99720.59;;;10.56;73.94
68634;BME280;55625;47.072;22.192;2023-04-29T07:16:40;99725.56;;;10.65;71.72
68634;BME280;55625;47.072;22.192;2023-04-29T07:19:06;99719.56;;;10.63;71.06
68634;BME280;55625;47.072;22.192;2023-04-29T07:21:32;99724.31;;;10.66;71.27
68634;BME280;55625;47.072;22.192;2023-04-29T07:23:58;99734.75;;;10.69;71.48
68634;BME280;55625;47.072;22.192;2023-04-29T07:26:27;99729.22;;;10.78;70.64
68634;BME280;55625;47.072;22.192;2023-04-29T07:28:52;99729.78;;;10.86;72.38
68634;BME280;55625;47.072;22.192;2023-04-29T07:31:19;99731.56;;;10.93;71.28
68634;BME280;55625;47.072;22.192;2023-04-29T07:33:45;99728.41;;;11.03;71.31
68634;BME280;55625;47.072;22.192;2023-04-29T07:36:12;99728.59;;;11.09;70.20
68634;BME280;55625;47.072;22.192;2023-04-29T07:38:37;99722.69;;;11.16;72.44
68634;BME280;55625;47.072;22.192;2023-04-29T07:41:03;99732.91;;;11.13;70.30
68634;BME280;55625;47.072;22.192;2023-04-29T07:43:29;99715.50;;;11.24;67.11
68634;BME280;55625;47.072;22.192;2023-04-29T07:45:55;99725.72;;;11.34;66.24
68634;BME280;55625;47.072;22.192;2023-04-29T07:48:21;99724.78;;;11.37;68.57
68634;BME280;55625;47.072;22.192;2023-04-29T07:50:47;99720.44;;;11.45;68.96
68634;BME280;55625;47.072;22.192;2023-04-29T07:53:13;99724.28;;;11.51;67.40
68634;BME280;55625;47.072;22.192;2023-04-29T07:55:41;99726.63;;;11.66;67.38
68634;BME280;55625;47.072;22.192;2023-04-29T07:58:06;99726.13;;;11.80;63.65
68634;BME280;55625;47.072;22.192;2023-04-29T08:00:33;99726.84;;;11.93;61.78
68634;BME280;55625;47.072;22.192;2023-04-29T08:02:59;99722.81;;;12.03;61.97
68634;BME280;55625;47.072;22.192;2023-04-29T08:05:25;99718.63;;;12.17;62.78
68634;BME280;55625;47.072;22.192;2023-04-29T08:07:51;99711.16;;;12.32;61.61
68634;BME280;55625;47.072;22.192;2023-04-29T08:10:18;99717.06;;;12.47;61.79
68634;BME280;55625;47.072;22.192;2023-04-29T08:12:50;99715.88;;;12.57;62.01
68634;BME280;55625;47.072;22.192;2023-04-29T08:15:16;99714.50;;;12.71;61.64
68634;BME280;55625;47.072;22.192;2023-04-29T08:17:43;99708.41;;;12.91;59.66
68634;BME280;55625;47.072;22.192;2023-04-29T08:20:09;99710.63;;;13.05;58.68
68634;BME280;55625;47.072;22.192;2023-04-29T08:22:36;99716.56;;;13.20;59.79
68634;BME280;55625;47.072;22.192;2023-04-29T08:25:06;99710.41;;;13.40;59.11
68634;BME280;55625;47.072;22.192;2023-04-29T08:27:32;99716.63;;;13.65;58.59
68634;BME280;55625;47.072;22.192;2023-04-29T08:29:58;99721.84;;;13.85;56.55
68634;BME280;55625;47.072;22.192;2023-04-29T08:32:24;99718.00;;;14.07;52.83
68634;BME280;55625;47.072;22.192;2023-04-29T08:34:50;99714.94;;;14.28;47.04
68634;BME280;55625;47.072;22.192;2023-04-29T08:37:16;99709.97;;;14.56;48.87
68634;BME280;55625;47.072;22.192;2023-04-29T08:39:43;99706.44;;;15.04;51.86
68634;BME280;55625;47.072;22.192;2023-04-29T08:42:11;99711.31;;;15.12;49.96
68634;BME280;55625;47.072;22.192;2023-04-29T08:44:39;99707.38;;;15.34;46.66
68634;BME280;55625;47.072;22.192;2023-04-29T08:47:06;99702.56;;;15.40;41.63
68634;BME280;55625;47.072;22.192;2023-04-29T08:49:32;99705.41;;;15.40;42.22
68634;BME280;55625;47.072;22.192;2023-04-29T08:51:59;99704.84;;;15.50;42.11
68634;BME280;55625;47.072;22.192;2023-04-29T08:54:25;99704.81;;;15.60;43.17
68634;BME280;55625;47.072;22.192;2023-04-29T08:56:52;99700.81;;;15.66;42.00
68634;BME280;55625;47.072;22.192;2023-04-29T08:59:20;99710.69;;;15.80;44.27
68634;BME280;55625;47.072;22.192;2023-04-29T09:01:47;99703.69;;;15.81;43.43
68634;BME280;55625;47.072;22.192;2023-04-29T09:04:50;99710.91;;;15.91;41.60
68634;BME280;55625;47.072;22.192;2023-04-29T09:07:17;99710.94;;;16.06;41.16
68634;BME280;55625;47.072;22.192;2023-04-29T09:09:43;99720.13;;;16.10;43.56
68634;BME280;55625;47.072;22.192;2023-04-29T09:12:09;99710.94;;;16.06;41.14
68634;BME280;55625;47.072;22.192;2023-04-29T09:14:35;99710.72;;;15.95;41.25
68634;BME280;55625;47.072;22.192;2023-04-29T09:17:01;99706.34;;;15.84;40.77
68634;BME280;55625;47.072;22.192;2023-04-29T09:19:35;99710.69;;;15.56;44.62
68634;BME280;55625;47.072;22.192;2023-04-29T09:22:03;99713.63;;;15.47;46.04
68634;BME280;55625;47.072;22.192;2023-04-29T09:24:30;99711.81;;;15.35;45.88
68634;BME280;55625;47.072;22.192;2023-04-29T09:26:57;99710.28;;;15.48;49.07
68634;BME280;55625;47.072;22.192;2023-04-29T09:29:23;99708.47;;;15.60;41.54
68634;BME280;55625;47.072;22.192;2023-04-29T09:31:50;99707.63;;;15.83;42.56
68634;BME280;55625;47.072;22.192;2023-04-29T09:34:34;99706.19;;;16.03;41.41
68634;BME280;55625;47.072;22.192;2023-04-29T09:37:01;99709.47;;;16.25;41.56
68634;BME280;55625;47.072;22.192;2023-04-29T09:39:38;99705.69;;;16.49;44.93
68634;BME280;55625;47.072;22.192;2023-04-29T09:42:04;99708.19;;;16.70;44.15
68634;BME280;55625;47.072;22.192;2023-04-29T09:44:33;99701.16;;;16.86;42.20
68634;BME280;55625;47.072;22.192;2023-04-29T09:47:07;99701.47;;;16.73;41.89
68634;BME280;55625;47.072;22.192;2023-04-29T09:49:51;99709.56;;;16.60;46.40
68634;BME280;55625;47.072;22.192;2023-04-29T09:52:17;99687.00;;;16.83;44.73
68634;BME280;55625;47.072;22.192;2023-04-29T09:54:45;99694.94;;;16.73;45.91
68634;BME280;55625;47.072;22.192;2023-04-29T09:57:12;99692.06;;;17.08;45.42
68634;BME280;55625;47.072;22.192;2023-04-29T09:59:41;99698.41;;;17.32;44.22
68634;BME280;55625;47.072;22.192;2023-04-29T10:02:16;99691.34;;;17.48;42.94
68634;BME280;55625;47.072;22.192;2023-04-29T10:04:48;99689.25;;;17.49;42.28
68634;BME280;55625;47.072;22.192;2023-04-29T10:07:19;99681.16;;;17.47;40.62
68634;BME280;55625;47.072;22.192;2023-04-29T10:09:46;99688.72;;;17.30;42.51
68634;BME280;55625;47.072;22.192;2023-04-29T10:12:18;99686.00;;;17.41;41.15
68634;BME280;55625;47.072;22.192;2023-04-29T10:15:09;99677.25;;;17.71;41.50
68634;BME280;55625;47.072;22.192;2023-04-29T10:18:18;99684.16;;;18.05;39.71
68634;BME280;55625;47.072;22.192;2023-04-29T10:20:47;99681.41;;;18.16;39.38
68634;BME280;55625;47.072;22.192;2023-04-29T10:23:14;99682.25;;;18.22;38.30
68634;BME280;55625;47.072;22.192;2023-04-29T10:25:44;99685.00;;;18.37;39.39
68634;BME280;55625;47.072;22.192;2023-04-29T10:28:14;99675.56;;;18.62;39.75
68634;BME280;55625;47.072;22.192;2023-04-29T10:30:45;99672.72;;;18.99;39.80
68634;BME280;55625;47.072;22.192;2023-04-29T10:33:15;99667.28;;;19.07;40.45
68634;BME280;55625;47.072;22.192;2023-04-29T10:35:43;99665.75;;;19.17;37.38
68634;BME280;55625;47.072;22.192;2023-04-29T10:40:57;99669.31;;;19.49;37.57
68634;BME280;55625;47.072;22.192;2023-04-29T10:43:25;99661.03;;;19.62;36.16
68634;BME280;55625;47.072;22.192;2023-04-29T10:46:17;99658.69;;;19.61;35.96
68634;BME280;55625;47.072;22.192;2023-04-29T10:48:48;99667.34;;;19.66;35.79
68634;BME280;55625;47.072;22.192;2023-04-29T10:54:23;99655.53;;;19.64;36.62
68634;BME280;55625;47.072;22.192;2023-04-29T10:56:52;99653.06;;;19.40;36.30
68634;BME280;55625;47.072;22.192;2023-04-29T11:01:53;99650.19;;;19.40;36.93
68634;BME280;55625;47.072;22.192;2023-04-29T11:04:21;99648.72;;;19.08;35.70
68634;BME280;55625;47.072;22.192;2023-04-29T11:06:52;99640.63;;;19.12;36.54
68634;BME280;55625;47.072;22.192;2023-04-29T11:12:03;99641.69;;;19.79;35.92
68634;BME280;55625;47.072;22.192;2023-04-29T11:16:58;99635.47;;;19.98;37.68
68634;BME280;55625;47.072;22.192;2023-04-29T11:19:32;99646.75;;;20.12;37.10
68634;BME280;55625;47.072;22.192;2023-04-29T11:24:56;99644.03;;;19.64;36.94
68634;BME280;55625;47.072;22.192;2023-04-29T11:27:28;99637.97;;;19.03;39.18
68634;BME280;55625;47.072;22.192;2023-04-29T11:29:56;99638.63;;;19.29;37.63
68634;BME280;55625;47.072;22.192;2023-04-29T11:32:35;99635.34;;;19.53;36.59
68634;BME280;55625;47.072;22.192;2023-04-29T11:35:16;99627.16;;;19.40;35.96
68634;BME280;55625;47.072;22.192;2023-04-29T11:37:45;99633.44;;;19.44;36.79
68634;BME280;55625;47.072;22.192;2023-04-29T11:40:13;99624.41;;;19.63;37.08
68634;BME280;55625;47.072;22.192;2023-04-29T11:42:48;99626.69;;;19.53;37.50
68634;BME280;55625;47.072;22.192;2023-04-29T11:45:17;99626.63;;;19.36;37.53
68634;BME280;55625;47.072;22.192;2023-04-29T11:47:45;99608.72;;;19.80;37.83
68634;BME280;55625;47.072;22.192;2023-04-29T11:50:13;99609.81;;;20.11;36.98
68634;BME280;55625;47.072;22.192;2023-04-29T11:52:41;99605.63;;;20.17;38.53
68634;BME280;55625;47.072;22.192;2023-04-29T11:55:10;99605.66;;;20.40;37.97
68634;BME280;55625;47.072;22.192;2023-04-29T11:57:37;99608.22;;;20.15;36.62
68634;BME280;55625;47.072;22.192;2023-04-29T12:00:10;99605.34;;;19.93;36.21
68634;BME280;55625;47.072;22.192;2023-04-29T12:02:38;99609.75;;;19.83;36.71
68634;BME280;55625;47.072;22.192;2023-04-29T12:05:07;99600.38;;;19.94;38.09
68634;BME280;55625;47.072;22.192;2023-04-29T12:07:34;99602.22;;;20.25;38.20
68634;BME280;55625;47.072;22.192;2023-04-29T12:10:01;99598.31;;;20.28;36.56
68634;BME280;55625;47.072;22.192;2023-04-29T12:12:27;99593.84;;;20.38;35.77
68634;BME280;55625;47.072;22.192;2023-04-29T12:14:54;99593.06;;;20.43;37.06
68634;BME280;55625;47.072;22.192;2023-04-29T12:17:20;99591.69;;;20.77;36.59
68634;BME280;55625;47.072;22.192;2023-04-29T12:19:46;99585.41;;;20.85;37.06
68634;BME280;55625;47.072;22.192;2023-04-29T12:22:13;99591.19;;;20.73;35.85
68634;BME280;55625;47.072;22.192;2023-04-29T12:24:39;99588.59;;;20.64;34.58
68634;BME280;55625;47.072;22.192;2023-04-29T12:27:09;99582.84;;;20.53;35.84
68634;BME280;55625;47.072;22.192;2023-04-29T12:29:37;99584.66;;;20.17;36.42
68634;BME280;55625;47.072;22.192;2023-04-29T12:32:03;99582.84;;;20.31;37.38
68634;BME280;55625;47.072;22.192;2023-04-29T12:34:30;99568.69;;;20.55;37.51
68634;BME280;55625;47.072;22.192;2023-04-29T12:36:58;99570.25;;;20.62;37.58
68634;BME280;55625;47.072;22.192;2023-04-29T12:39:29;99560.31;;;20.52;37.42
68634;BME280;55625;47.072;22.192;2023-04-29T12:41:59;99557.41;;;20.57;38.13
68634;BME280;55625;47.072;22.192;2023-04-29T12:44:33;99555.34;;;20.52;36.99
68634;BME280;55625;47.072;22.192;2023-04-29T12:47:09;99550.59;;;20.60;37.99
68634;BME280;55625;47.072;22.192;2023-04-29T12:49:45;99556.09;;;20.47;36.29
68634;BME280;55625;47.072;22.192;2023-04-29T12:52:11;99552.72;;;20.21;36.24
68634;BME280;55625;47.072;22.192;2023-04-29T12:54:38;99549.81;;;20.32;36.78
68634;BME280;55625;47.072;22.192;2023-04-29T12:57:09;99539.59;;;20.48;36.63
68634;BME280;55625;47.072;22.192;2023-04-29T12:59:35;99535.66;;;20.45;37.52
68634;BME280;55625;47.072;22.192;2023-04-29T13:02:01;99536.72;;;20.31;38.20
68634;BME280;55625;47.072;22.192;2023-04-29T13:04:27;99533.03;;;20.36;38.36
68634;BME280;55625;47.072;22.192;2023-04-29T13:06:53;99539.31;;;20.62;38.10
68634;BME280;55625;47.072;22.192;2023-04-29T13:09:25;99535.06;;;20.74;36.85
68634;BME280;55625;47.072;22.192;2023-04-29T13:11:51;99532.50;;;20.49;36.50
68634;BME280;55625;47.072;22.192;2023-04-29T13:14:17;99522.53;;;20.66;37.14
68634;BME280;55625;47.072;22.192;2023-04-29T13:16:44;99519.00;;;20.96;37.06
68634;BME280;55625;47.072;22.192;2023-04-29T13:19:10;99524.72;;;21.07;38.97
68634;BME280;55625;47.072;22.192;2023-04-29T13:21:37;99517.84;;;21.21;35.84
68634;BME280;55625;47.072;22.192;2023-04-29T13:24:04;99517.78;;;20.74;34.20